createdAt,value
2022-11-02T00:00:11.693Z,0.00
2022-11-02T00:01:11.812Z,0.00
2022-11-02T00:02:11.806Z,0.00
2022-11-02T00:03:11.896Z,0.00
2022-11-02T00:04:11.865Z,0.00
2022-11-02T00:05:11.874Z,0.00
2022-11-02T00:06:11.877Z,0.00
2022-11-02T00:07:11.894Z,0.00
2022-11-02T00:08:11.956Z,0.00
2022-11-02T00:09:12.029Z,0.00
2022-11-02T00:10:12.065Z,0.00
2022-11-02T00:11:12.073Z,0.00
2022-11-02T00:12:12.137Z,0.00
2022-11-02T00:13:12.158Z,0.00
2022-11-02T00:14:12.186Z,0.00
2022-11-02T00:15:12.199Z,0.00
2022-11-02T00:16:12.246Z,0.00
2022-11-02T00:17:12.278Z,0.00
2022-11-02T00:18:12.256Z,0.00
2022-11-02T00:19:12.268Z,0.00
2022-11-02T00:20:12.259Z,0.00
2022-11-02T00:21:12.298Z,0.00
2022-11-02T00:22:12.360Z,0.00
2022-11-02T00:23:12.396Z,0.00
2022-11-02T00:24:12.460Z,0.00
2022-11-02T00:25:12.440Z,0.00
2022-11-02T00:26:12.480Z,0.00
2022-11-02T00:27:12.519Z,0.00
2022-11-02T00:28:12.529Z,0.00
2022-11-02T00:29:12.560Z,0.00
2022-11-02T00:30:12.634Z,0.00
2022-11-02T00:31:12.670Z,0.00
2022-11-02T00:32:12.651Z,0.00
2022-11-02T00:33:12.641Z,0.00
2022-11-02T00:34:12.662Z,0.00
2022-11-02T00:35:12.670Z,0.00
2022-11-02T00:36:12.663Z,0.00
2022-11-02T00:37:12.836Z,0.00
2022-11-02T00:38:12.702Z,0.00
2022-11-02T00:39:12.762Z,0.00
2022-11-02T00:40:12.804Z,0.00
2022-11-02T00:41:12.849Z,0.00
2022-11-02T00:42:12.885Z,0.00
2022-11-02T00:43:12.945Z,0.00
2022-11-02T00:44:12.964Z,0.00
2022-11-02T00:45:12.956Z,0.00
2022-11-02T00:46:12.952Z,0.00
2022-11-02T00:47:12.957Z,0.00
2022-11-02T00:48:13.007Z,0.00
2022-11-02T00:49:12.996Z,0.00
2022-11-02T00:50:13.046Z,0.00
2022-11-02T00:51:13.088Z,0.00
2022-11-02T00:52:13.149Z,0.00
2022-11-02T00:53:13.157Z,0.00
2022-11-02T00:54:13.177Z,0.00
2022-11-02T00:55:13.180Z,0.00
2022-11-02T00:56:13.219Z,0.00
2022-11-02T00:57:13.275Z,0.00
2022-11-02T00:58:13.328Z,0.00
2022-11-02T00:59:13.359Z,0.00
2022-11-02T01:00:13.376Z,0.00
2022-11-02T01:01:13.541Z,0.00
2022-11-02T01:02:13.674Z,0.00
2022-11-02T01:03:13.458Z,0.00
2022-11-02T01:04:13.451Z,0.00
2022-11-02T01:05:13.503Z,0.00
2022-11-02T01:06:13.541Z,0.00
2022-11-02T01:07:13.532Z,0.00
2022-11-02T01:08:13.521Z,0.00
2022-11-02T01:09:13.571Z,0.00
2022-11-02T01:10:13.631Z,0.00
2022-11-02T01:11:13.660Z,0.00
2022-11-02T01:12:13.673Z,0.00
2022-11-02T01:13:13.661Z,0.00
2022-11-02T01:14:13.685Z,0.00
2022-11-02T01:15:13.733Z,0.00
2022-11-02T01:16:13.790Z,0.00
2022-11-02T01:17:13.842Z,0.00
2022-11-02T01:18:13.849Z,0.00
2022-11-02T01:19:13.887Z,0.00
2022-11-02T01:20:13.912Z,0.00
2022-11-02T01:21:13.959Z,0.00
2022-11-02T01:22:14.026Z,0.00
2022-11-02T01:23:14.007Z,0.00
2022-11-02T01:24:14.035Z,0.00
2022-11-02T01:25:14.085Z,0.00
2022-11-02T01:26:14.155Z,0.00
2022-11-02T01:27:14.224Z,0.00
2022-11-02T01:28:14.249Z,0.00
2022-11-02T01:29:14.306Z,0.00
2022-11-02T01:30:14.307Z,0.00
2022-11-02T01:31:14.378Z,0.00
2022-11-02T01:32:14.446Z,0.00
2022-11-02T01:33:14.455Z,0.00
2022-11-02T01:34:14.504Z,0.00
2022-11-02T01:35:14.538Z,0.00
2022-11-02T01:36:14.621Z,0.00
2022-11-02T01:37:14.543Z,0.00
2022-11-02T01:38:14.589Z,0.00
2022-11-02T01:39:14.660Z,0.00
2022-11-02T01:40:14.730Z,0.00
2022-11-02T01:41:14.744Z,0.00
2022-11-02T01:42:14.733Z,0.00
2022-11-02T01:43:14.742Z,0.00
2022-11-02T01:44:14.791Z,0.00
2022-11-02T01:45:14.861Z,0.00
2022-11-02T01:46:14.862Z,0.00
2022-11-02T01:47:14.980Z,0.00
2022-11-02T01:48:14.980Z,0.00
2022-11-02T01:49:15.033Z,0.00
2022-11-02T01:50:15.034Z,0.00
2022-11-02T01:51:15.104Z,0.00
2022-11-02T01:52:15.152Z,0.00
2022-11-02T01:53:15.205Z,0.00
2022-11-02T01:54:15.212Z,0.00
2022-11-02T01:55:15.260Z,0.00
2022-11-02T01:56:15.373Z,0.00
2022-11-02T01:57:15.354Z,0.00
2022-11-02T01:58:15.396Z,0.00
2022-11-02T01:59:15.449Z,0.00
2022-11-02T02:00:15.485Z,0.00
2022-11-02T02:01:23.322Z,0.00
2022-11-02T02:02:15.640Z,0.00
2022-11-02T02:03:15.595Z,0.00
2022-11-02T02:04:15.638Z,0.00
2022-11-02T02:05:15.693Z,0.00
2022-11-02T02:06:15.745Z,0.00
2022-11-02T02:07:15.790Z,0.00
2022-11-02T02:08:15.830Z,0.00
2022-11-02T02:09:15.881Z,0.00
2022-11-02T02:10:15.917Z,0.00
2022-11-02T02:11:15.972Z,0.00
2022-11-02T02:12:16.029Z,0.00
2022-11-02T02:13:16.070Z,0.00
2022-11-02T02:14:16.121Z,0.00
2022-11-02T02:15:16.172Z,0.00
2022-11-02T02:16:16.233Z,0.00
2022-11-02T02:17:16.271Z,0.00
2022-11-02T02:18:16.311Z,0.00
2022-11-02T02:19:16.371Z,0.00
2022-11-02T02:20:16.423Z,0.00
2022-11-02T02:21:16.461Z,0.00
2022-11-02T02:22:16.501Z,0.00
2022-11-02T02:23:16.534Z,0.00
2022-11-02T02:24:16.602Z,0.00
2022-11-02T02:25:16.652Z,0.00
2022-11-02T02:26:16.721Z,0.00
2022-11-02T02:27:16.713Z,0.00
2022-11-02T02:28:16.744Z,0.00
2022-11-02T02:29:16.794Z,0.00
2022-11-02T02:30:16.837Z,0.00
2022-11-02T02:31:16.866Z,0.00
2022-11-02T02:32:16.914Z,0.00
2022-11-02T02:33:16.927Z,0.00
2022-11-02T02:34:16.988Z,0.00
2022-11-02T02:35:17.035Z,0.00
2022-11-02T02:36:17.045Z,0.00
2022-11-02T02:37:17.127Z,0.00
2022-11-02T02:38:17.131Z,0.00
2022-11-02T02:39:17.187Z,0.00
2022-11-02T02:40:17.216Z,0.00
2022-11-02T02:41:17.209Z,0.00
2022-11-02T02:42:17.248Z,0.00
2022-11-02T02:43:17.284Z,0.00
2022-11-02T02:44:17.336Z,0.00
2022-11-02T02:45:17.367Z,0.00
2022-11-02T02:46:17.421Z,0.00
2022-11-02T02:47:17.508Z,0.00
2022-11-02T02:48:17.544Z,0.00
2022-11-02T02:49:17.607Z,0.00
2022-11-02T02:50:17.619Z,0.00
2022-11-02T02:51:17.630Z,0.00
2022-11-02T02:52:17.654Z,0.00
2022-11-02T02:53:17.650Z,0.00
2022-11-02T02:54:17.742Z,0.00
2022-11-02T02:55:17.721Z,0.00
2022-11-02T02:56:17.706Z,0.00
2022-11-02T02:57:17.704Z,0.00
2022-11-02T02:58:17.723Z,0.00
2022-11-02T02:59:17.811Z,0.00
2022-11-02T03:00:17.851Z,0.00
2022-11-02T03:01:18.004Z,0.00
2022-11-02T03:02:18.080Z,0.00
2022-11-02T03:03:17.884Z,0.00
2022-11-02T03:04:17.891Z,0.00
2022-11-02T03:05:17.924Z,0.00
2022-11-02T03:06:17.934Z,0.00
2022-11-02T03:07:17.960Z,0.00
2022-11-02T03:08:17.969Z,0.00
2022-11-02T03:09:18.007Z,0.00
2022-11-02T03:10:18.054Z,0.00
2022-11-02T03:11:18.035Z,0.00
2022-11-02T03:12:18.036Z,0.00
2022-11-02T03:13:18.106Z,0.00
2022-11-02T03:14:18.156Z,0.00
2022-11-02T03:15:18.218Z,0.00
2022-11-02T03:16:18.237Z,0.00
2022-11-02T03:17:18.287Z,0.00
2022-11-02T03:18:18.317Z,0.00
2022-11-02T03:19:18.367Z,0.00
2022-11-02T03:20:18.407Z,0.00
2022-11-02T03:21:18.465Z,0.00
2022-11-02T03:22:18.511Z,0.00
2022-11-02T03:23:18.539Z,0.00
2022-11-02T03:24:18.562Z,0.00
2022-11-02T03:25:18.610Z,0.00
2022-11-02T03:26:18.620Z,0.00
2022-11-02T03:27:18.628Z,0.00
2022-11-02T03:28:18.631Z,0.00
2022-11-02T03:29:18.639Z,0.00
2022-11-02T03:30:18.669Z,0.00
2022-11-02T03:31:18.722Z,0.00
2022-11-02T03:32:18.721Z,0.00
2022-11-02T03:33:18.741Z,0.00
2022-11-02T03:34:18.820Z,0.00
2022-11-02T03:35:18.822Z,0.00
2022-11-02T03:36:18.893Z,0.00
2022-11-02T03:37:18.904Z,0.00
2022-11-02T03:38:18.933Z,0.00
2022-11-02T03:39:18.963Z,0.00
2022-11-02T03:40:19.014Z,0.00
2022-11-02T03:41:19.034Z,0.00
2022-11-02T03:42:19.021Z,0.00
2022-11-02T03:43:19.024Z,0.00
2022-11-02T03:44:19.054Z,0.00
2022-11-02T03:45:19.068Z,0.00
2022-11-02T03:46:19.094Z,0.00
2022-11-02T03:47:19.117Z,0.00
2022-11-02T03:48:19.117Z,0.00
2022-11-02T03:49:19.146Z,0.00
2022-11-02T03:50:19.187Z,0.00
2022-11-02T03:51:19.266Z,0.00
2022-11-02T03:52:19.236Z,0.00
2022-11-02T03:53:19.302Z,0.00
2022-11-02T03:54:19.297Z,0.00
2022-11-02T03:55:19.342Z,0.00
2022-11-02T03:56:19.377Z,0.00
2022-11-02T03:57:19.369Z,0.00
2022-11-02T03:58:19.459Z,0.00
2022-11-02T03:59:19.499Z,0.00
2022-11-02T04:00:19.548Z,0.00
2022-11-02T04:01:19.680Z,0.00
2022-11-02T04:02:19.703Z,0.00
2022-11-02T04:03:19.589Z,0.00
2022-11-02T04:04:19.630Z,0.00
2022-11-02T04:05:19.679Z,0.00
2022-11-02T04:06:19.740Z,0.00
2022-11-02T04:07:19.730Z,0.00
2022-11-02T04:08:19.747Z,0.00
2022-11-02T04:09:19.782Z,0.00
2022-11-02T04:10:19.812Z,0.00
2022-11-02T04:11:19.841Z,0.00
2022-11-02T04:12:19.912Z,0.00
2022-11-02T04:13:19.912Z,0.00
2022-11-02T04:14:19.905Z,0.00
2022-11-02T04:15:19.933Z,0.00
2022-11-02T04:16:26.521Z,0.00
2022-11-02T04:17:20.043Z,0.00
2022-11-02T04:18:20.044Z,0.00
2022-11-02T04:19:20.096Z,0.00
2022-11-02T04:20:20.125Z,0.00
2022-11-02T04:21:20.175Z,0.00
2022-11-02T04:22:20.215Z,0.00
2022-11-02T04:23:20.276Z,0.00
2022-11-02T04:24:20.344Z,0.00
2022-11-02T04:25:20.388Z,0.00
2022-11-02T04:26:20.389Z,0.00
2022-11-02T04:27:21.309Z,0.00
2022-11-02T04:28:20.446Z,0.00
2022-11-02T04:29:20.429Z,0.00
2022-11-02T04:30:20.463Z,0.00
2022-11-02T04:31:20.487Z,0.00
2022-11-02T04:32:20.549Z,0.00
2022-11-02T04:33:20.548Z,0.00
2022-11-02T04:34:20.569Z,0.00
2022-11-02T04:35:20.619Z,0.00
2022-11-02T04:36:20.657Z,0.00
2022-11-02T04:37:20.765Z,0.00
2022-11-02T04:38:20.761Z,0.00
2022-11-02T04:39:20.810Z,0.00
2022-11-02T04:40:20.802Z,0.00
2022-11-02T04:41:20.791Z,0.00
2022-11-02T04:42:20.820Z,0.00
2022-11-02T04:43:20.881Z,0.00
2022-11-02T04:44:24.823Z,0.00
2022-11-02T04:45:20.874Z,0.00
2022-11-02T04:46:20.871Z,0.00
2022-11-02T04:47:20.903Z,0.00
2022-11-02T04:48:20.974Z,0.00
2022-11-02T04:49:20.962Z,0.00
2022-11-02T04:50:20.972Z,0.00
2022-11-02T04:51:21.003Z,0.00
2022-11-02T04:52:21.043Z,0.00
2022-11-02T04:53:21.063Z,0.00
2022-11-02T04:54:21.114Z,0.00
2022-11-02T04:55:21.103Z,0.00
2022-11-02T04:56:21.145Z,0.00
2022-11-02T04:57:21.146Z,0.00
2022-11-02T04:58:21.144Z,0.00
2022-11-02T04:59:21.122Z,0.00
2022-11-02T05:00:21.204Z,0.00
2022-11-02T05:01:21.393Z,0.00
2022-11-02T05:02:21.340Z,0.00
2022-11-02T05:03:21.277Z,0.00
2022-11-02T05:04:21.266Z,0.00
2022-11-02T05:05:21.327Z,0.00
2022-11-02T05:06:21.349Z,0.00
2022-11-02T05:07:21.367Z,0.00
2022-11-02T05:08:21.397Z,0.00
2022-11-02T05:09:21.473Z,0.00
2022-11-02T05:10:21.499Z,0.00
2022-11-02T05:11:21.498Z,0.00
2022-11-02T05:12:24.176Z,0.00
2022-11-02T05:13:21.499Z,0.00
2022-11-02T05:14:21.539Z,0.00
2022-11-02T05:15:21.552Z,0.00
2022-11-02T05:16:21.540Z,0.00
2022-11-02T05:17:21.574Z,0.00
2022-11-02T05:19:21.661Z,0.00
2022-11-02T05:20:21.691Z,0.00
2022-11-02T05:21:21.751Z,0.00
2022-11-02T05:22:21.771Z,0.00
2022-11-02T05:23:21.771Z,0.00
2022-11-02T05:24:21.832Z,0.00
2022-11-02T05:25:21.851Z,0.00
2022-11-02T05:26:21.922Z,0.00
2022-11-02T05:27:21.987Z,0.00
2022-11-02T05:28:22.023Z,0.00
2022-11-02T05:29:22.038Z,0.00
2022-11-02T05:30:22.073Z,0.00
2022-11-02T05:31:22.129Z,0.00
2022-11-02T05:32:22.105Z,0.00
2022-11-02T05:33:25.482Z,0.00
2022-11-02T05:34:22.185Z,0.00
2022-11-02T05:35:22.394Z,0.00
2022-11-02T05:36:22.266Z,0.00
2022-11-02T05:37:22.243Z,0.00
2022-11-02T05:38:22.256Z,0.00
2022-11-02T05:39:22.296Z,0.00
2022-11-02T05:40:22.358Z,0.00
2022-11-02T05:41:22.406Z,0.00
2022-11-02T05:42:22.408Z,0.00
2022-11-02T05:43:22.417Z,0.00
2022-11-02T05:44:22.418Z,0.00
2022-11-02T05:45:24.465Z,0.00
2022-11-02T05:46:22.497Z,0.00
2022-11-02T05:47:22.508Z,0.00
2022-11-02T05:48:22.509Z,0.00
2022-11-02T05:49:22.518Z,0.00
2022-11-02T05:50:22.574Z,0.00
2022-11-02T05:51:22.583Z,0.00
2022-11-02T05:52:22.619Z,0.00
2022-11-02T05:53:22.629Z,0.00
2022-11-02T05:54:22.680Z,0.00
2022-11-02T05:55:22.672Z,0.00
2022-11-02T05:56:25.227Z,0.00
2022-11-02T05:57:22.821Z,0.00
2022-11-02T05:58:22.870Z,0.00
2022-11-02T05:59:22.867Z,0.00
2022-11-02T06:00:22.908Z,0.00
2022-11-02T06:01:22.976Z,0.00
2022-11-02T06:02:25.325Z,0.00
2022-11-02T06:03:22.951Z,0.00
2022-11-02T06:04:23.003Z,0.00
2022-11-02T06:05:23.067Z,0.00
2022-11-02T06:06:23.053Z,0.00
2022-11-02T06:07:23.065Z,0.00
2022-11-02T06:08:23.114Z,0.00
2022-11-02T06:09:23.130Z,0.00
2022-11-02T06:10:23.163Z,0.00
2022-11-02T06:11:23.215Z,0.00
2022-11-02T06:12:23.265Z,0.00
2022-11-02T06:13:23.257Z,0.00
2022-11-02T06:14:23.264Z,0.00
2022-11-02T06:15:23.266Z,0.00
2022-11-02T06:16:23.611Z,0.00
2022-11-02T06:17:23.316Z,0.00
2022-11-02T06:18:23.377Z,5.62
2022-11-02T06:19:23.435Z,5.62
2022-11-02T06:20:23.408Z,5.62
2022-11-02T06:21:23.427Z,5.62
2022-11-02T06:22:23.437Z,5.62
2022-11-02T06:23:23.477Z,5.62
2022-11-02T06:24:23.537Z,11.25
2022-11-02T06:25:23.519Z,16.88
2022-11-02T06:26:23.579Z,16.88
2022-11-02T06:27:23.598Z,16.88
2022-11-02T06:28:23.641Z,16.88
2022-11-02T06:29:23.709Z,16.88
2022-11-02T06:30:23.744Z,16.88
2022-11-02T06:31:23.732Z,16.88
2022-11-02T06:32:23.782Z,16.88
2022-11-02T06:33:23.861Z,16.88
2022-11-02T06:34:23.916Z,11.25
2022-11-02T06:35:23.950Z,11.25
2022-11-02T06:36:23.961Z,11.25
2022-11-02T06:37:23.931Z,16.88
2022-11-02T06:38:23.987Z,16.88
2022-11-02T06:39:24.007Z,16.88
2022-11-02T06:40:26.478Z,16.88
2022-11-02T06:41:24.043Z,16.88
2022-11-02T06:42:24.064Z,16.88
2022-11-02T06:43:24.652Z,16.88
2022-11-02T06:44:24.133Z,16.88
2022-11-02T06:45:24.406Z,22.50
2022-11-02T06:46:24.233Z,28.12
2022-11-02T06:47:24.224Z,33.75
2022-11-02T06:48:25.641Z,39.38
2022-11-02T06:49:24.275Z,33.75
2022-11-02T06:50:24.310Z,33.75
2022-11-02T06:51:24.325Z,33.75
2022-11-02T06:52:24.408Z,33.75
2022-11-02T06:53:24.445Z,33.75
2022-11-02T06:54:24.516Z,28.12
2022-11-02T06:55:24.646Z,28.12
2022-11-02T06:56:24.617Z,33.75
2022-11-02T06:57:24.678Z,28.12
2022-11-02T06:58:24.699Z,33.75
2022-11-02T06:59:24.669Z,39.38
2022-11-02T07:00:24.663Z,39.38
2022-11-02T07:01:24.836Z,39.38
2022-11-02T07:02:24.848Z,39.38
2022-11-02T07:03:24.729Z,39.38
2022-11-02T07:04:24.733Z,33.75
2022-11-02T07:05:24.739Z,28.12
2022-11-02T07:06:24.790Z,33.75
2022-11-02T07:07:24.862Z,33.75
2022-11-02T07:08:24.839Z,33.75
2022-11-02T07:09:24.881Z,39.38
2022-11-02T07:10:24.955Z,33.75
2022-11-02T07:11:25.004Z,39.38
2022-11-02T07:12:25.063Z,39.38
2022-11-02T07:13:25.098Z,39.38
2022-11-02T07:14:25.131Z,33.75
2022-11-02T07:15:25.132Z,33.75
2022-11-02T07:16:25.154Z,33.75
2022-11-02T07:17:31.049Z,39.38
2022-11-02T07:18:25.253Z,39.38
2022-11-02T07:19:25.304Z,50.62
2022-11-02T07:20:25.315Z,50.62
2022-11-02T07:21:25.386Z,50.62
2022-11-02T07:22:25.407Z,45.00
2022-11-02T07:23:25.415Z,45.00
2022-11-02T07:24:25.405Z,39.38
2022-11-02T07:25:25.468Z,39.38
2022-11-02T07:26:25.486Z,45.00
2022-11-02T07:27:25.516Z,45.00
2022-11-02T07:28:25.487Z,50.62
2022-11-02T07:29:25.557Z,56.25
2022-11-02T07:30:25.559Z,50.62
2022-11-02T07:31:25.567Z,50.62
2022-11-02T07:32:25.619Z,50.62
2022-11-02T07:33:25.618Z,50.62
2022-11-02T07:34:25.687Z,50.62
2022-11-02T07:35:25.699Z,50.62
2022-11-02T07:36:25.770Z,56.25
2022-11-02T07:37:25.740Z,56.25
2022-11-02T07:38:25.808Z,56.25
2022-11-02T07:39:25.801Z,73.12
2022-11-02T07:40:25.883Z,67.50
2022-11-02T07:41:25.931Z,73.12
2022-11-02T07:42:25.921Z,90.00
2022-11-02T07:43:25.910Z,101.25
2022-11-02T07:44:25.971Z,129.38
2022-11-02T07:45:26.000Z,129.38
2022-11-02T07:46:26.079Z,118.12
2022-11-02T07:47:26.081Z,112.50
2022-11-02T07:48:26.112Z,112.50
2022-11-02T07:49:26.173Z,90.00
2022-11-02T07:50:26.182Z,73.12
2022-11-02T07:51:26.224Z,73.12
2022-11-02T07:52:26.233Z,78.75
2022-11-02T07:53:26.254Z,84.38
2022-11-02T07:54:26.667Z,67.50
2022-11-02T07:55:26.255Z,56.25
2022-11-02T07:56:26.272Z,50.62
2022-11-02T07:57:26.255Z,67.50
2022-11-02T07:58:26.333Z,73.12
2022-11-02T07:59:26.316Z,101.25
2022-11-02T08:00:26.406Z,90.00
2022-11-02T08:01:26.399Z,84.38
2022-11-02T08:02:26.459Z,84.38
2022-11-02T08:03:26.500Z,73.12
2022-11-02T08:04:26.458Z,67.50
2022-11-02T08:05:26.454Z,78.75
2022-11-02T08:06:26.448Z,84.38
2022-11-02T08:07:26.507Z,90.00
2022-11-02T08:08:26.608Z,95.62
2022-11-02T08:09:26.659Z,95.62
2022-11-02T08:10:26.650Z,95.62
2022-11-02T08:11:26.669Z,118.12
2022-11-02T08:12:26.689Z,146.25
2022-11-02T08:13:26.689Z,163.12
2022-11-02T08:14:26.731Z,146.25
2022-11-02T08:15:26.751Z,135.00
2022-11-02T08:16:26.744Z,146.25
2022-11-02T08:17:26.792Z,146.25
2022-11-02T08:18:26.801Z,146.25
2022-11-02T08:19:26.841Z,151.88
2022-11-02T08:20:26.922Z,151.88
2022-11-02T08:21:26.971Z,151.88
2022-11-02T08:22:27.016Z,123.75
2022-11-02T08:23:27.013Z,118.12
2022-11-02T08:24:27.054Z,118.12
2022-11-02T08:25:27.105Z,112.50
2022-11-02T08:26:27.175Z,123.75
2022-11-02T08:27:27.162Z,112.50
2022-11-02T08:28:27.186Z,106.88
2022-11-02T08:29:27.285Z,95.62
2022-11-02T08:30:27.274Z,95.62
2022-11-02T08:31:27.306Z,90.00
2022-11-02T08:32:27.354Z,90.00
2022-11-02T08:33:27.346Z,106.88
2022-11-02T08:34:27.347Z,123.75
2022-11-02T08:35:27.367Z,123.75
2022-11-02T08:36:27.389Z,129.38
2022-11-02T08:37:27.421Z,135.00
2022-11-02T08:38:27.459Z,140.62
2022-11-02T08:39:27.481Z,140.62
2022-11-02T08:40:27.461Z,135.00
2022-11-02T08:41:27.517Z,123.75
2022-11-02T08:42:27.551Z,123.75
2022-11-02T08:43:27.592Z,112.50
2022-11-02T08:44:27.609Z,101.25
2022-11-02T08:45:27.681Z,129.38
2022-11-02T08:46:27.710Z,174.38
2022-11-02T08:47:27.772Z,180.00
2022-11-02T08:48:27.794Z,191.25
2022-11-02T08:49:27.832Z,213.75
2022-11-02T08:50:27.851Z,213.75
2022-11-02T08:51:27.917Z,219.38
2022-11-02T08:52:27.993Z,230.62
2022-11-02T08:53:28.045Z,191.25
2022-11-02T08:54:28.112Z,202.50
2022-11-02T08:55:28.134Z,202.50
2022-11-02T08:56:28.173Z,196.88
2022-11-02T08:57:28.226Z,202.50
2022-11-02T08:58:28.265Z,219.38
2022-11-02T08:59:28.253Z,219.38
2022-11-02T09:00:28.287Z,281.25
2022-11-02T09:01:28.379Z,331.88
2022-11-02T09:02:28.403Z,337.50
2022-11-02T09:03:28.435Z,320.62
2022-11-02T09:04:28.436Z,298.12
2022-11-02T09:05:28.497Z,315.00
2022-11-02T09:06:28.508Z,320.62
2022-11-02T09:07:28.541Z,292.50
2022-11-02T09:08:28.942Z,258.75
2022-11-02T09:09:28.637Z,225.00
2022-11-02T09:10:28.662Z,230.62
2022-11-02T09:11:28.697Z,286.88
2022-11-02T09:12:28.718Z,309.38
2022-11-02T09:13:28.892Z,309.38
2022-11-02T09:14:28.834Z,376.88
2022-11-02T09:15:28.770Z,478.12
2022-11-02T09:16:28.740Z,545.62
2022-11-02T09:17:28.761Z,871.88
2022-11-02T09:18:28.772Z,821.25
2022-11-02T09:19:28.791Z,1220.62
2022-11-02T09:20:28.841Z,1569.38
2022-11-02T09:21:28.831Z,365.62
2022-11-02T09:22:28.850Z,360.00
2022-11-02T09:23:28.902Z,427.50
2022-11-02T09:24:28.934Z,1558.12
2022-11-02T09:25:28.957Z,1147.50
2022-11-02T09:26:28.954Z,1558.12
2022-11-02T09:27:29.006Z,1383.75
2022-11-02T09:28:29.008Z,393.75
2022-11-02T09:29:29.044Z,444.38
2022-11-02T09:30:29.066Z,348.75
2022-11-02T09:31:29.055Z,382.50
2022-11-02T09:32:29.065Z,489.38
2022-11-02T09:33:29.106Z,523.12
2022-11-02T09:34:29.137Z,343.12
2022-11-02T09:35:29.198Z,365.62
2022-11-02T09:36:29.236Z,326.25
2022-11-02T09:37:29.286Z,264.38
2022-11-02T09:38:29.307Z,298.12
2022-11-02T09:39:29.372Z,1338.75
2022-11-02T09:40:29.379Z,360.00
2022-11-02T09:41:29.431Z,1417.50
2022-11-02T09:42:29.469Z,348.75
2022-11-02T09:43:32.413Z,360.00
2022-11-02T09:44:29.470Z,376.88
2022-11-02T09:45:29.500Z,703.12
2022-11-02T09:46:29.572Z,315.00
2022-11-02T09:48:30.043Z,275.62
2022-11-02T09:49:29.723Z,236.25
2022-11-02T09:50:29.757Z,258.75
2022-11-02T09:51:29.793Z,264.38
2022-11-02T09:52:29.840Z,275.62
2022-11-02T09:53:29.893Z,275.62
2022-11-02T09:54:29.909Z,241.88
2022-11-02T09:55:29.934Z,202.50
2022-11-02T09:56:29.973Z,213.75
2022-11-02T09:57:29.995Z,208.12
2022-11-02T09:58:30.054Z,500.62
2022-11-02T09:59:30.021Z,270.00
2022-11-02T10:00:30.044Z,208.12
2022-11-02T10:01:30.132Z,180.00
2022-11-02T10:02:30.197Z,219.38
2022-11-02T10:03:30.206Z,270.00
2022-11-02T10:04:30.276Z,495.00
2022-11-02T10:05:30.237Z,298.12
2022-11-02T10:06:30.386Z,275.62
2022-11-02T10:07:30.299Z,270.00
2022-11-02T10:08:30.317Z,270.00
2022-11-02T10:09:30.368Z,309.38
2022-11-02T10:10:30.359Z,315.00
2022-11-02T10:11:30.496Z,315.00
2022-11-02T10:12:30.473Z,421.88
2022-11-02T10:13:30.472Z,326.25
2022-11-02T10:14:30.500Z,331.88
2022-11-02T10:15:30.550Z,253.12
2022-11-02T10:16:30.593Z,196.88
2022-11-02T10:17:30.581Z,180.00
2022-11-02T10:18:30.571Z,168.75
2022-11-02T10:19:30.683Z,180.00
2022-11-02T10:20:30.652Z,213.75
2022-11-02T10:21:30.722Z,253.12
2022-11-02T10:22:30.772Z,973.12
2022-11-02T10:23:30.781Z,461.25
2022-11-02T10:24:30.853Z,635.62
2022-11-02T10:25:30.903Z,376.88
2022-11-02T10:26:30.963Z,320.62
2022-11-02T10:27:31.030Z,939.38
2022-11-02T10:28:31.085Z,281.25
2022-11-02T10:29:31.054Z,270.00
2022-11-02T10:30:31.083Z,270.00
2022-11-02T10:31:31.125Z,922.50
2022-11-02T10:32:31.229Z,331.88
2022-11-02T10:33:31.228Z,343.12
2022-11-02T10:34:31.257Z,247.50
2022-11-02T10:35:41.246Z,230.62
2022-11-02T10:36:31.301Z,275.62
2022-11-02T10:37:31.338Z,281.25
2022-11-02T10:38:31.376Z,264.38
2022-11-02T10:39:31.429Z,253.12
2022-11-02T10:40:31.468Z,253.12
2022-11-02T10:41:31.509Z,241.88
2022-11-02T10:42:31.551Z,219.38
2022-11-02T10:43:31.640Z,202.50
2022-11-02T10:44:31.699Z,185.62
2022-11-02T10:45:31.700Z,298.12
2022-11-02T10:46:31.733Z,416.25
2022-11-02T10:47:31.791Z,472.50
2022-11-02T10:48:31.835Z,444.38
2022-11-02T10:49:31.902Z,270.00
2022-11-02T10:50:31.921Z,281.25
2022-11-02T10:51:31.892Z,742.50
2022-11-02T10:52:31.915Z,675.00
2022-11-02T10:53:47.894Z,371.25
2022-11-02T10:54:34.490Z,540.00
2022-11-02T10:55:32.043Z,590.62
2022-11-02T10:56:32.079Z,281.25
2022-11-02T10:57:32.105Z,258.75
2022-11-02T10:58:32.123Z,258.75
2022-11-02T10:59:32.186Z,253.12
2022-11-02T11:00:32.385Z,489.38
2022-11-02T11:01:32.316Z,601.88
2022-11-02T11:02:32.293Z,326.25
2022-11-02T11:03:32.318Z,630.00
2022-11-02T11:04:32.380Z,393.75
2022-11-02T11:05:32.436Z,365.62
2022-11-02T11:06:32.447Z,292.50
2022-11-02T11:07:32.500Z,253.12
2022-11-02T11:08:32.508Z,241.88
2022-11-02T11:09:32.559Z,264.38
2022-11-02T11:10:32.607Z,545.62
2022-11-02T11:11:32.628Z,579.38
2022-11-02T11:12:32.711Z,298.12
2022-11-02T11:15:48.314Z,281.25
2022-11-02T11:16:32.871Z,270.00
2022-11-02T11:19:40.731Z,286.88
2022-11-02T11:20:32.925Z,298.12
2022-11-02T11:21:33.012Z,601.88
2022-11-02T11:22:33.073Z,320.62
2022-11-02T11:23:33.092Z,326.25
2022-11-02T11:24:33.135Z,326.25
2022-11-02T11:25:33.225Z,371.25
2022-11-02T11:26:33.124Z,624.38
2022-11-02T11:27:33.155Z,270.00
2022-11-02T11:28:33.195Z,433.12
2022-11-02T11:29:33.255Z,641.25
2022-11-02T11:30:59.454Z,286.88
2022-11-02T11:31:33.288Z,680.62
2022-11-02T11:32:33.318Z,748.12
2022-11-02T11:33:33.359Z,753.75
2022-11-02T11:34:33.347Z,427.50
2022-11-02T11:35:33.425Z,326.25
2022-11-02T11:36:33.539Z,309.38
2022-11-02T11:37:33.518Z,286.88
2022-11-02T11:38:33.538Z,376.88
2022-11-02T11:39:33.542Z,348.75
2022-11-02T11:40:33.572Z,298.12
2022-11-02T11:41:33.620Z,270.00
2022-11-02T11:42:33.635Z,472.50
2022-11-02T11:43:33.669Z,455.62
2022-11-02T11:44:33.651Z,281.25
2022-11-02T11:45:33.770Z,264.38
2022-11-02T11:46:33.701Z,264.38
2022-11-02T11:47:33.702Z,241.88
2022-11-02T11:48:33.763Z,399.38
2022-11-02T11:50:08.126Z,258.75
2022-11-02T11:50:33.850Z,230.62
2022-11-02T11:51:33.854Z,219.38
2022-11-02T11:52:33.905Z,208.12
2022-11-02T11:53:33.942Z,421.88
2022-11-02T11:54:33.933Z,219.38
2022-11-02T11:55:33.929Z,225.00
2022-11-02T11:56:33.965Z,219.38
2022-11-02T11:57:34.255Z,433.12
2022-11-02T11:58:34.117Z,427.50
2022-11-02T11:59:34.166Z,225.00
2022-11-02T12:00:34.196Z,213.75
2022-11-02T12:01:34.357Z,270.00
2022-11-02T12:02:36.887Z,230.62
2022-11-02T12:03:34.247Z,236.25
2022-11-02T12:04:34.249Z,253.12
2022-11-02T12:05:34.308Z,450.00
2022-11-02T12:06:34.370Z,320.62
2022-11-02T12:07:34.399Z,483.75
2022-11-02T12:08:34.429Z,225.00
2022-11-02T12:09:34.429Z,343.12
2022-11-02T12:10:34.453Z,337.50
2022-11-02T12:11:34.470Z,241.88
2022-11-02T12:12:34.521Z,528.75
2022-11-02T12:13:34.571Z,382.50
2022-11-02T12:14:34.572Z,534.38
2022-11-02T12:15:34.602Z,528.75
2022-11-02T12:16:34.663Z,506.25
2022-11-02T12:17:34.683Z,568.12
2022-11-02T12:18:34.715Z,416.25
2022-11-02T12:19:34.792Z,258.75
2022-11-02T12:20:34.824Z,298.12
2022-11-02T12:21:34.853Z,466.88
2022-11-02T12:22:34.894Z,652.50
2022-11-02T12:23:34.954Z,646.88
2022-11-02T12:24:35.015Z,658.12
2022-11-02T12:25:35.046Z,669.38
2022-11-02T12:26:35.095Z,528.75
2022-11-02T12:27:35.158Z,500.62
2022-11-02T12:28:35.144Z,495.00
2022-11-02T12:29:35.147Z,455.62
2022-11-02T12:30:35.207Z,416.25
2022-11-02T12:31:35.199Z,472.50
2022-11-02T12:32:35.238Z,461.25
2022-11-02T12:33:35.365Z,461.25
2022-11-02T12:34:35.319Z,450.00
2022-11-02T12:35:35.359Z,472.50
2022-11-02T12:36:35.878Z,444.38
2022-11-02T12:37:41.024Z,427.50
2022-11-02T12:38:35.540Z,421.88
2022-11-02T12:39:35.540Z,410.62
2022-11-02T12:40:35.592Z,427.50
2022-11-02T12:41:35.599Z,410.62
2022-11-02T12:42:37.960Z,405.00
2022-11-02T12:43:35.731Z,405.00
2022-11-02T12:44:35.722Z,388.12
2022-11-02T12:45:37.421Z,405.00
2022-11-02T12:46:39.733Z,399.38
2022-11-02T12:47:35.833Z,399.38
2022-11-02T12:48:35.893Z,399.38
2022-11-02T12:49:36.483Z,388.12
2022-11-02T12:50:36.438Z,388.12
2022-11-02T12:51:35.965Z,376.88
2022-11-02T12:52:35.985Z,331.88
2022-11-02T12:53:36.016Z,365.62
2022-11-02T12:54:41.370Z,365.62
2022-11-02T12:55:38.703Z,371.25
2022-11-02T12:56:36.287Z,388.12
2022-11-02T12:57:36.195Z,399.38
2022-11-02T12:58:36.227Z,382.50
2022-11-02T12:59:36.267Z,371.25
2022-11-02T13:00:36.378Z,365.62
2022-11-02T13:01:36.572Z,360.00